sensor_id;sensor_type;location;lat;lon;timestamp;P1;durP1;ratioP1;P2;durP2;ratioP2
84163;SDS011;74288;46.872;7.802;2024-03-02T00:01:34;4.78;;;1.90;;
84163;SDS011;74288;46.872;7.802;2024-03-02T00:04:01;4.47;;;1.70;;
84163;SDS011;74288;46.872;7.802;2024-03-02T00:06:28;4.67;;;2.00;;
84163;SDS011;74288;46.872;7.802;2024-03-02T00:08:56;6.82;;;1.67;;
84163;SDS011;74288;46.872;7.802;2024-03-02T00:11:24;2.53;;;1.10;;
84163;SDS011;74288;46.872;7.802;2024-03-02T00:13:52;2.97;;;1.00;;
84163;SDS011;74288;46.872;7.802;2024-03-02T00:16:18;2.23;;;0.90;;
84163;SDS011;74288;46.872;7.802;2024-03-02T00:18:45;3.88;;;1.00;;
84163;SDS011;74288;46.872;7.802;2024-03-02T00:21:11;2.92;;;1.08;;
84163;SDS011;74288;46.872;7.802;2024-03-02T00:23:39;2.20;;;0.90;;
84163;SDS011;74288;46.872;7.802;2024-03-02T00:26:06;2.50;;;0.75;;
84163;SDS011;74288;46.872;7.802;2024-03-02T00:28:34;3.10;;;1.00;;
84163;SDS011;74288;46.872;7.802;2024-03-02T00:31:07;2.20;;;0.80;;
84163;SDS011;74288;46.872;7.802;2024-03-02T00:33:37;3.92;;;1.00;;
84163;SDS011;74288;46.872;7.802;2024-03-02T00:36:05;3.83;;;1.10;;
84163;SDS011;74288;46.872;7.802;2024-03-02T00:38:32;3.78;;;1.10;;
84163;SDS011;74288;46.872;7.802;2024-03-02T00:40:58;3.10;;;1.20;;
84163;SDS011;74288;46.872;7.802;2024-03-02T00:46:22;2.97;;;1.20;;
84163;SDS011;74288;46.872;7.802;2024-03-02T00:48:52;3.97;;;1.40;;
84163;SDS011;74288;46.872;7.802;2024-03-02T00:51:19;3.83;;;1.38;;
84163;SDS011;74288;46.872;7.802;2024-03-02T00:53:46;3.17;;;1.30;;
84163;SDS011;74288;46.872;7.802;2024-03-02T00:56:12;3.17;;;1.35;;
84163;SDS011;74288;46.872;7.802;2024-03-02T00:58:39;4.20;;;1.20;;
84163;SDS011;74288;46.872;7.802;2024-03-02T01:01:05;6.93;;;1.00;;
84163;SDS011;74288;46.872;7.802;2024-03-02T01:03:32;10.52;;;1.10;;
84163;SDS011;74288;46.872;7.802;2024-03-02T01:05:58;4.87;;;0.90;;
84163;SDS011;74288;46.872;7.802;2024-03-02T01:08:24;2.10;;;0.70;;
84163;SDS011;74288;46.872;7.802;2024-03-02T01:10:51;3.35;;;0.82;;
84163;SDS011;74288;46.872;7.802;2024-03-02T01:13:17;7.53;;;0.93;;
84163;SDS011;74288;46.872;7.802;2024-03-02T01:15:42;2.30;;;0.90;;
84163;SDS011;74288;46.872;7.802;2024-03-02T01:18:09;2.15;;;0.88;;
84163;SDS011;74288;46.872;7.802;2024-03-02T01:20:34;1.85;;;0.80;;
84163;SDS011;74288;46.872;7.802;2024-03-02T01:23:01;2.05;;;0.80;;
84163;SDS011;74288;46.872;7.802;2024-03-02T01:25:27;2.20;;;0.77;;
84163;SDS011;74288;46.872;7.802;2024-03-02T01:27:53;2.22;;;0.80;;
84163;SDS011;74288;46.872;7.802;2024-03-02T01:30:19;2.63;;;0.80;;
84163;SDS011;74288;46.872;7.802;2024-03-02T01:32:44;2.15;;;0.75;;
84163;SDS011;74288;46.872;7.802;2024-03-02T01:35:10;1.88;;;0.70;;
84163;SDS011;74288;46.872;7.802;2024-03-02T01:37:36;1.95;;;0.70;;
84163;SDS011;74288;46.872;7.802;2024-03-02T01:40:03;3.22;;;0.77;;
84163;SDS011;74288;46.872;7.802;2024-03-02T01:42:34;1.97;;;0.80;;
84163;SDS011;74288;46.872;7.802;2024-03-02T01:45:00;4.45;;;0.90;;
84163;SDS011;74288;46.872;7.802;2024-03-02T01:47:26;3.20;;;1.00;;
84163;SDS011;74288;46.872;7.802;2024-03-02T01:49:51;4.53;;;1.00;;
84163;SDS011;74288;46.872;7.802;2024-03-02T01:52:17;14.00;;;3.53;;
84163;SDS011;74288;46.872;7.802;2024-03-02T01:54:43;9.90;;;3.45;;
84163;SDS011;74288;46.872;7.802;2024-03-02T01:57:09;3.10;;;1.10;;
84163;SDS011;74288;46.872;7.802;2024-03-02T01:59:35;2.42;;;0.80;;
84163;SDS011;74288;46.872;7.802;2024-03-02T02:02:01;2.30;;;0.70;;
84163;SDS011;74288;46.872;7.802;2024-03-02T02:04:27;2.35;;;0.70;;
84163;SDS011;74288;46.872;7.802;2024-03-02T02:06:54;2.50;;;0.70;;
84163;SDS011;74288;46.872;7.802;2024-03-02T02:09:20;2.42;;;0.80;;
84163;SDS011;74288;46.872;7.802;2024-03-02T02:11:46;2.53;;;0.70;;
84163;SDS011;74288;46.872;7.802;2024-03-02T02:14:12;4.07;;;0.77;;
84163;SDS011;74288;46.872;7.802;2024-03-02T02:16:38;2.33;;;0.70;;
84163;SDS011;74288;46.872;7.802;2024-03-02T02:19:04;5.70;;;0.80;;
84163;SDS011;74288;46.872;7.802;2024-03-02T02:21:30;2.90;;;0.80;;
84163;SDS011;74288;46.872;7.802;2024-03-02T02:23:56;6.88;;;0.70;;
84163;SDS011;74288;46.872;7.802;2024-03-02T02:26:22;12.50;;;0.70;;
84163;SDS011;74288;46.872;7.802;2024-03-02T02:28:48;2.25;;;0.60;;
84163;SDS011;74288;46.872;7.802;2024-03-02T02:31:14;2.92;;;0.80;;
84163;SDS011;74288;46.872;7.802;2024-03-02T02:33:40;2.88;;;0.75;;
84163;SDS011;74288;46.872;7.802;2024-03-02T02:36:06;7.80;;;0.82;;
84163;SDS011;74288;46.872;7.802;2024-03-02T02:38:39;1.20;;;0.50;;
84163;SDS011;74288;46.872;7.802;2024-03-02T02:41:06;3.85;;;0.60;;
84163;SDS011;74288;46.872;7.802;2024-03-02T02:43:32;1.73;;;0.60;;
84163;SDS011;74288;46.872;7.802;2024-03-02T02:45:58;1.73;;;0.65;;
84163;SDS011;74288;46.872;7.802;2024-03-02T02:48:23;3.55;;;0.70;;
84163;SDS011;74288;46.872;7.802;2024-03-02T02:50:50;1.92;;;0.70;;
84163;SDS011;74288;46.872;7.802;2024-03-02T02:53:16;5.20;;;1.10;;
84163;SDS011;74288;46.872;7.802;2024-03-02T02:55:42;7.22;;;1.00;;
84163;SDS011;74288;46.872;7.802;2024-03-02T02:58:11;2.40;;;0.80;;
84163;SDS011;74288;46.872;7.802;2024-03-02T03:00:37;1.60;;;0.60;;
84163;SDS011;74288;46.872;7.802;2024-03-02T03:03:03;2.30;;;0.70;;
84163;SDS011;74288;46.872;7.802;2024-03-02T03:05:29;2.08;;;0.70;;
84163;SDS011;74288;46.872;7.802;2024-03-02T03:07:55;1.67;;;0.60;;
84163;SDS011;74288;46.872;7.802;2024-03-02T03:10:21;2.97;;;0.70;;
84163;SDS011;74288;46.872;7.802;2024-03-02T03:12:48;1.87;;;0.60;;
84163;SDS011;74288;46.872;7.802;2024-03-02T03:15:14;1.77;;;0.70;;
84163;SDS011;74288;46.872;7.802;2024-03-02T03:17:43;1.67;;;0.60;;
84163;SDS011;74288;46.872;7.802;2024-03-02T03:20:11;1.52;;;0.60;;
84163;SDS011;74288;46.872;7.802;2024-03-02T03:22:40;1.63;;;0.67;;
84163;SDS011;74288;46.872;7.802;2024-03-02T03:25:07;1.23;;;0.60;;
84163;SDS011;74288;46.872;7.802;2024-03-02T03:27:33;1.67;;;0.50;;
84163;SDS011;74288;46.872;7.802;2024-03-02T03:29:59;1.48;;;0.60;;
84163;SDS011;74288;46.872;7.802;2024-03-02T03:32:25;3.50;;;0.70;;
84163;SDS011;74288;46.872;7.802;2024-03-02T03:34:51;3.33;;;0.60;;
84163;SDS011;74288;46.872;7.802;2024-03-02T03:37:17;1.30;;;0.50;;
84163;SDS011;74288;46.872;7.802;2024-03-02T03:39:43;1.05;;;0.50;;
84163;SDS011;74288;46.872;7.802;2024-03-02T03:42:09;1.60;;;0.60;;
84163;SDS011;74288;46.872;7.802;2024-03-02T03:44:35;2.28;;;0.77;;
84163;SDS011;74288;46.872;7.802;2024-03-02T03:47:01;1.83;;;0.60;;
84163;SDS011;74288;46.872;7.802;2024-03-02T03:49:27;4.40;;;0.93;;
84163;SDS011;74288;46.872;7.802;2024-03-02T03:51:53;3.30;;;0.70;;
84163;SDS011;74288;46.872;7.802;2024-03-02T03:54:19;5.50;;;0.70;;
84163;SDS011;74288;46.872;7.802;2024-03-02T03:56:45;3.60;;;0.70;;
84163;SDS011;74288;46.872;7.802;2024-03-02T03:59:11;6.63;;;0.70;;
84163;SDS011;74288;46.872;7.802;2024-03-02T04:01:37;2.20;;;0.60;;
84163;SDS011;74288;46.872;7.802;2024-03-02T04:04:03;6.20;;;0.70;;
84163;SDS011;74288;46.872;7.802;2024-03-02T04:06:29;6.43;;;0.70;;
84163;SDS011;74288;46.872;7.802;2024-03-02T04:08:55;7.95;;;0.70;;
84163;SDS011;74288;46.872;7.802;2024-03-02T04:11:21;1.33;;;0.50;;
84163;SDS011;74288;46.872;7.802;2024-03-02T04:13:47;1.23;;;0.47;;
84163;SDS011;74288;46.872;7.802;2024-03-02T04:16:13;1.00;;;0.40;;
84163;SDS011;74288;46.872;7.802;2024-03-02T04:18:39;1.90;;;0.50;;
84163;SDS011;74288;46.872;7.802;2024-03-02T04:21:05;6.13;;;0.60;;
84163;SDS011;74288;46.872;7.802;2024-03-02T04:23:31;4.60;;;0.50;;
84163;SDS011;74288;46.872;7.802;2024-03-02T04:25:57;3.78;;;0.52;;
84163;SDS011;74288;46.872;7.802;2024-03-02T04:28:23;2.33;;;0.70;;
84163;SDS011;74288;46.872;7.802;2024-03-02T04:30:49;2.90;;;0.75;;
84163;SDS011;74288;46.872;7.802;2024-03-02T04:33:15;2.15;;;0.77;;
84163;SDS011;74288;46.872;7.802;2024-03-02T04:35:41;2.55;;;0.80;;
84163;SDS011;74288;46.872;7.802;2024-03-02T04:38:07;2.45;;;0.70;;
84163;SDS011;74288;46.872;7.802;2024-03-02T04:40:33;5.70;;;0.80;;
84163;SDS011;74288;46.872;7.802;2024-03-02T04:42:59;1.67;;;0.60;;
84163;SDS011;74288;46.872;7.802;2024-03-02T04:45:25;1.77;;;0.60;;
84163;SDS011;74288;46.872;7.802;2024-03-02T04:47:51;2.67;;;0.55;;
84163;SDS011;74288;46.872;7.802;2024-03-02T04:50:17;2.17;;;0.80;;
84163;SDS011;74288;46.872;7.802;2024-03-02T04:52:43;2.63;;;0.90;;
84163;SDS011;74288;46.872;7.802;2024-03-02T04:55:08;4.03;;;2.23;;
84163;SDS011;74288;46.872;7.802;2024-03-02T04:57:34;4.00;;;1.70;;
84163;SDS011;74288;46.872;7.802;2024-03-02T05:00:01;2.90;;;1.10;;
84163;SDS011;74288;46.872;7.802;2024-03-02T05:02:27;2.43;;;1.00;;
84163;SDS011;74288;46.872;7.802;2024-03-02T05:04:52;3.40;;;1.10;;
84163;SDS011;74288;46.872;7.802;2024-03-02T05:07:18;3.13;;;1.08;;
84163;SDS011;74288;46.872;7.802;2024-03-02T05:09:44;3.53;;;1.40;;
84163;SDS011;74288;46.872;7.802;2024-03-02T05:12:10;5.17;;;1.70;;
84163;SDS011;74288;46.872;7.802;2024-03-02T05:14:55;3.60;;;1.38;;
84163;SDS011;74288;46.872;7.802;2024-03-02T05:17:21;3.38;;;1.10;;
84163;SDS011;74288;46.872;7.802;2024-03-02T05:19:47;3.00;;;1.00;;
84163;SDS011;74288;46.872;7.802;2024-03-02T05:22:13;3.07;;;1.00;;
84163;SDS011;74288;46.872;7.802;2024-03-02T05:24:39;4.35;;;1.35;;
84163;SDS011;74288;46.872;7.802;2024-03-02T05:27:05;3.75;;;1.30;;
84163;SDS011;74288;46.872;7.802;2024-03-02T05:29:32;3.40;;;0.97;;
84163;SDS011;74288;46.872;7.802;2024-03-02T05:31:58;3.08;;;1.08;;
84163;SDS011;74288;46.872;7.802;2024-03-02T05:34:24;3.35;;;1.10;;
84163;SDS011;74288;46.872;7.802;2024-03-02T05:36:50;3.15;;;1.02;;
84163;SDS011;74288;46.872;7.802;2024-03-02T05:39:16;2.83;;;1.03;;
84163;SDS011;74288;46.872;7.802;2024-03-02T05:41:42;2.55;;;0.80;;
84163;SDS011;74288;46.872;7.802;2024-03-02T05:44:08;3.55;;;1.20;;
84163;SDS011;74288;46.872;7.802;2024-03-02T05:46:34;3.78;;;1.30;;
84163;SDS011;74288;46.872;7.802;2024-03-02T05:49:00;4.90;;;1.80;;
84163;SDS011;74288;46.872;7.802;2024-03-02T05:51:26;6.10;;;2.30;;
84163;SDS011;74288;46.872;7.802;2024-03-02T05:53:52;5.60;;;2.00;;
84163;SDS011;74288;46.872;7.802;2024-03-02T05:56:18;5.18;;;1.70;;
84163;SDS011;74288;46.872;7.802;2024-03-02T05:58:44;7.27;;;2.57;;
84163;SDS011;74288;46.872;7.802;2024-03-02T06:01:28;10.70;;;4.03;;
84163;SDS011;74288;46.872;7.802;2024-03-02T06:03:55;10.25;;;3.47;;
84163;SDS011;74288;46.872;7.802;2024-03-02T06:06:22;10.13;;;3.50;;
84163;SDS011;74288;46.872;7.802;2024-03-02T06:08:48;13.57;;;4.17;;
84163;SDS011;74288;46.872;7.802;2024-03-02T06:11:15;10.65;;;3.35;;
84163;SDS011;74288;46.872;7.802;2024-03-02T06:13:41;11.48;;;3.08;;
84163;SDS011;74288;46.872;7.802;2024-03-02T06:16:07;7.25;;;2.63;;
84163;SDS011;74288;46.872;7.802;2024-03-02T06:18:33;8.90;;;3.33;;
84163;SDS011;74288;46.872;7.802;2024-03-02T06:20:59;10.38;;;2.70;;
84163;SDS011;74288;46.872;7.802;2024-03-02T06:23:26;7.28;;;2.70;;
84163;SDS011;74288;46.872;7.802;2024-03-02T06:25:52;9.35;;;3.15;;
84163;SDS011;74288;46.872;7.802;2024-03-02T06:28:18;11.15;;;3.60;;
84163;SDS011;74288;46.872;7.802;2024-03-02T06:30:44;6.83;;;2.63;;
84163;SDS011;74288;46.872;7.802;2024-03-02T06:33:10;5.93;;;2.25;;
84163;SDS011;74288;46.872;7.802;2024-03-02T06:35:36;7.88;;;2.70;;
84163;SDS011;74288;46.872;7.802;2024-03-02T06:38:02;8.27;;;2.80;;
84163;SDS011;74288;46.872;7.802;2024-03-02T06:40:28;10.40;;;3.07;;
84163;SDS011;74288;46.872;7.802;2024-03-02T06:42:54;28.17;;;6.95;;
84163;SDS011;74288;46.872;7.802;2024-03-02T06:45:20;30.88;;;7.93;;
84163;SDS011;74288;46.872;7.802;2024-03-02T06:47:46;38.88;;;10.00;;
84163;SDS011;74288;46.872;7.802;2024-03-02T06:50:12;32.97;;;8.97;;
84163;SDS011;74288;46.872;7.802;2024-03-02T06:52:38;17.83;;;5.47;;
84163;SDS011;74288;46.872;7.802;2024-03-02T06:55:04;22.75;;;7.45;;
84163;SDS011;74288;46.872;7.802;2024-03-02T06:57:30;16.43;;;5.70;;
84163;SDS011;74288;46.872;7.802;2024-03-02T06:59:56;14.55;;;5.05;;
84163;SDS011;74288;46.872;7.802;2024-03-02T07:02:26;14.07;;;5.43;;
84163;SDS011;74288;46.872;7.802;2024-03-02T07:04:53;10.07;;;3.40;;
84163;SDS011;74288;46.872;7.802;2024-03-02T07:07:19;6.53;;;2.45;;
84163;SDS011;74288;46.872;7.802;2024-03-02T07:09:45;5.43;;;2.20;;
84163;SDS011;74288;46.872;7.802;2024-03-02T07:12:11;5.00;;;1.90;;
84163;SDS011;74288;46.872;7.802;2024-03-02T07:14:37;6.00;;;2.00;;
84163;SDS011;74288;46.872;7.802;2024-03-02T07:17:22;6.93;;;2.78;;
84163;SDS011;74288;46.872;7.802;2024-03-02T07:19:48;6.27;;;2.50;;
84163;SDS011;74288;46.872;7.802;2024-03-02T07:22:14;5.63;;;2.28;;
84163;SDS011;74288;46.872;7.802;2024-03-02T07:24:40;7.30;;;2.65;;
84163;SDS011;74288;46.872;7.802;2024-03-02T07:27:06;6.63;;;2.30;;
84163;SDS011;74288;46.872;7.802;2024-03-02T07:29:33;6.15;;;2.40;;
84163;SDS011;74288;46.872;7.802;2024-03-02T07:31:59;6.20;;;2.13;;
84163;SDS011;74288;46.872;7.802;2024-03-02T07:34:24;5.93;;;2.38;;
84163;SDS011;74288;46.872;7.802;2024-03-02T07:36:50;5.20;;;1.73;;
84163;SDS011;74288;46.872;7.802;2024-03-02T07:39:16;4.33;;;1.80;;
84163;SDS011;74288;46.872;7.802;2024-03-02T07:41:44;7.03;;;2.60;;
84163;SDS011;74288;46.872;7.802;2024-03-02T07:44:10;6.20;;;1.95;;
84163;SDS011;74288;46.872;7.802;2024-03-02T07:46:39;4.32;;;1.70;;
84163;SDS011;74288;46.872;7.802;2024-03-02T07:49:05;4.78;;;1.50;;
84163;SDS011;74288;46.872;7.802;2024-03-02T07:51:31;4.90;;;1.60;;
84163;SDS011;74288;46.872;7.802;2024-03-02T07:53:57;4.63;;;1.48;;
84163;SDS011;74288;46.872;7.802;2024-03-02T07:56:23;4.40;;;1.67;;
84163;SDS011;74288;46.872;7.802;2024-03-02T07:58:49;3.75;;;1.30;;
84163;SDS011;74288;46.872;7.802;2024-03-02T08:01:15;4.00;;;1.42;;
84163;SDS011;74288;46.872;7.802;2024-03-02T08:03:42;4.00;;;1.40;;
84163;SDS011;74288;46.872;7.802;2024-03-02T08:06:12;5.45;;;1.60;;
84163;SDS011;74288;46.872;7.802;2024-03-02T08:08:39;3.25;;;1.20;;
84163;SDS011;74288;46.872;7.802;2024-03-02T08:11:05;12.20;;;4.37;;
84163;SDS011;74288;46.872;7.802;2024-03-02T08:13:31;9.95;;;4.25;;
84163;SDS011;74288;46.872;7.802;2024-03-02T08:15:57;7.05;;;3.00;;
84163;SDS011;74288;46.872;7.802;2024-03-02T08:18:24;7.82;;;2.90;;
84163;SDS011;74288;46.872;7.802;2024-03-02T08:20:50;12.85;;;6.22;;
84163;SDS011;74288;46.872;7.802;2024-03-02T08:23:16;10.57;;;5.40;;
84163;SDS011;74288;46.872;7.802;2024-03-02T08:25:42;8.25;;;3.20;;
84163;SDS011;74288;46.872;7.802;2024-03-02T08:28:08;8.73;;;3.20;;
84163;SDS011;74288;46.872;7.802;2024-03-02T08:30:34;6.32;;;2.50;;
84163;SDS011;74288;46.872;7.802;2024-03-02T08:33:00;9.50;;;4.20;;
84163;SDS011;74288;46.872;7.802;2024-03-02T08:35:26;11.82;;;5.20;;
84163;SDS011;74288;46.872;7.802;2024-03-02T08:37:53;18.48;;;6.25;;
84163;SDS011;74288;46.872;7.802;2024-03-02T08:40:19;53.53;;;18.15;;
84163;SDS011;74288;46.872;7.802;2024-03-02T08:42:45;27.90;;;10.00;;
84163;SDS011;74288;46.872;7.802;2024-03-02T08:45:11;13.32;;;4.93;;
84163;SDS011;74288;46.872;7.802;2024-03-02T08:47:37;6.35;;;1.83;;
84163;SDS011;74288;46.872;7.802;2024-03-02T08:50:04;3.60;;;1.20;;
84163;SDS011;74288;46.872;7.802;2024-03-02T08:52:31;4.13;;;1.23;;
84163;SDS011;74288;46.872;7.802;2024-03-02T08:54:57;4.38;;;1.33;;
84163;SDS011;74288;46.872;7.802;2024-03-02T08:57:23;3.72;;;1.33;;
84163;SDS011;74288;46.872;7.802;2024-03-02T08:59:49;3.17;;;1.20;;
84163;SDS011;74288;46.872;7.802;2024-03-02T09:02:15;3.93;;;1.27;;
84163;SDS011;74288;46.872;7.802;2024-03-02T09:04:41;3.75;;;1.30;;
84163;SDS011;74288;46.872;7.802;2024-03-02T09:07:07;4.47;;;1.20;;
84163;SDS011;74288;46.872;7.802;2024-03-02T09:09:33;3.65;;;1.25;;
84163;SDS011;74288;46.872;7.802;2024-03-02T09:11:59;3.37;;;1.20;;
84163;SDS011;74288;46.872;7.802;2024-03-02T09:14:25;2.55;;;1.00;;
84163;SDS011;74288;46.872;7.802;2024-03-02T09:16:51;2.83;;;1.20;;
84163;SDS011;74288;46.872;7.802;2024-03-02T09:19:17;4.13;;;1.13;;
84163;SDS011;74288;46.872;7.802;2024-03-02T09:21:43;3.78;;;1.10;;
84163;SDS011;74288;46.872;7.802;2024-03-02T09:24:09;4.40;;;1.27;;
84163;SDS011;74288;46.872;7.802;2024-03-02T09:26:35;3.47;;;1.38;;
84163;SDS011;74288;46.872;7.802;2024-03-02T09:29:01;3.47;;;1.20;;
84163;SDS011;74288;46.872;7.802;2024-03-02T09:31:27;3.40;;;1.20;;
84163;SDS011;74288;46.872;7.802;2024-03-02T09:33:53;3.20;;;1.20;;
84163;SDS011;74288;46.872;7.802;2024-03-02T09:36:20;2.58;;;1.00;;
84163;SDS011;74288;46.872;7.802;2024-03-02T09:38:47;4.57;;;1.25;;
84163;SDS011;74288;46.872;7.802;2024-03-02T09:41:13;2.42;;;1.00;;
84163;SDS011;74288;46.872;7.802;2024-03-02T09:43:39;2.63;;;0.90;;
84163;SDS011;74288;46.872;7.802;2024-03-02T09:46:06;2.28;;;0.90;;
84163;SDS011;74288;46.872;7.802;2024-03-02T09:48:34;1.77;;;0.80;;
84163;SDS011;74288;46.872;7.802;2024-03-02T09:51:00;2.13;;;0.80;;
84163;SDS011;74288;46.872;7.802;2024-03-02T09:53:32;2.38;;;0.90;;
84163;SDS011;74288;46.872;7.802;2024-03-02T09:55:59;2.63;;;1.00;;
84163;SDS011;74288;46.872;7.802;2024-03-02T09:58:25;2.72;;;1.00;;
84163;SDS011;74288;46.872;7.802;2024-03-02T10:00:52;3.28;;;0.98;;
84163;SDS011;74288;46.872;7.802;2024-03-02T10:03:20;1.77;;;0.80;;
84163;SDS011;74288;46.872;7.802;2024-03-02T10:05:49;3.87;;;1.60;;
84163;SDS011;74288;46.872;7.802;2024-03-02T10:08:16;3.45;;;0.88;;
84163;SDS011;74288;46.872;7.802;2024-03-02T10:10:42;2.88;;;1.10;;
84163;SDS011;74288;46.872;7.802;2024-03-02T10:13:11;3.70;;;1.13;;
84163;SDS011;74288;46.872;7.802;2024-03-02T10:15:37;2.88;;;1.10;;
84163;SDS011;74288;46.872;7.802;2024-03-02T10:18:06;3.50;;;1.30;;
84163;SDS011;74288;46.872;7.802;2024-03-02T10:20:34;3.22;;;1.27;;
84163;SDS011;74288;46.872;7.802;2024-03-02T10:23:12;3.38;;;1.30;;
84163;SDS011;74288;46.872;7.802;2024-03-02T10:25:39;3.17;;;1.27;;
84163;SDS011;74288;46.872;7.802;2024-03-02T10:28:05;3.72;;;1.13;;
84163;SDS011;74288;46.872;7.802;2024-03-02T10:30:32;6.13;;;1.30;;
84163;SDS011;74288;46.872;7.802;2024-03-02T10:32:58;4.60;;;1.30;;
84163;SDS011;74288;46.872;7.802;2024-03-02T10:35:24;2.88;;;1.10;;
84163;SDS011;74288;46.872;7.802;2024-03-02T10:37:51;2.55;;;1.10;;
84163;SDS011;74288;46.872;7.802;2024-03-02T10:40:17;2.37;;;1.10;;
84163;SDS011;74288;46.872;7.802;2024-03-02T10:42:43;2.45;;;1.00;;
84163;SDS011;74288;46.872;7.802;2024-03-02T10:45:11;2.05;;;1.00;;
84163;SDS011;74288;46.872;7.802;2024-03-02T10:47:37;3.67;;;1.23;;
84163;SDS011;74288;46.872;7.802;2024-03-02T10:50:06;2.28;;;0.80;;
84163;SDS011;74288;46.872;7.802;2024-03-02T10:52:36;2.60;;;1.00;;
84163;SDS011;74288;46.872;7.802;2024-03-02T10:55:04;3.33;;;0.90;;
84163;SDS011;74288;46.872;7.802;2024-03-02T10:57:41;3.50;;;1.13;;
84163;SDS011;74288;46.872;7.802;2024-03-02T11:00:08;2.67;;;1.13;;
84163;SDS011;74288;46.872;7.802;2024-03-02T11:02:40;2.85;;;1.10;;
84163;SDS011;74288;46.872;7.802;2024-03-02T11:05:08;2.50;;;1.00;;
84163;SDS011;74288;46.872;7.802;2024-03-02T11:07:35;3.05;;;1.08;;
84163;SDS011;74288;46.872;7.802;2024-03-02T11:10:03;3.28;;;1.15;;
84163;SDS011;74288;46.872;7.802;2024-03-02T11:12:38;3.55;;;1.10;;
84163;SDS011;74288;46.872;7.802;2024-03-02T11:15:06;2.42;;;1.00;;
84163;SDS011;74288;46.872;7.802;2024-03-02T11:17:35;2.90;;;1.23;;
84163;SDS011;74288;46.872;7.802;2024-03-02T11:20:02;3.05;;;1.40;;
84163;SDS011;74288;46.872;7.802;2024-03-02T11:22:29;3.33;;;1.38;;
84163;SDS011;74288;46.872;7.802;2024-03-02T11:24:55;2.72;;;1.30;;
84163;SDS011;74288;46.872;7.802;2024-03-02T11:30:06;3.07;;;1.20;;
84163;SDS011;74288;46.872;7.802;2024-03-02T11:32:33;3.90;;;1.40;;
84163;SDS011;74288;46.872;7.802;2024-03-02T11:34:58;2.90;;;1.30;;
84163;SDS011;74288;46.872;7.802;2024-03-02T11:37:24;2.85;;;1.30;;
84163;SDS011;74288;46.872;7.802;2024-03-02T11:39:50;3.03;;;1.20;;
84163;SDS011;74288;46.872;7.802;2024-03-02T11:42:17;3.20;;;1.40;;
84163;SDS011;74288;46.872;7.802;2024-03-02T11:44:44;4.18;;;1.38;;
84163;SDS011;74288;46.872;7.802;2024-03-02T11:47:12;3.15;;;1.35;;
84163;SDS011;74288;46.872;7.802;2024-03-02T11:49:43;4.10;;;1.55;;
84163;SDS011;74288;46.872;7.802;2024-03-02T11:52:10;4.20;;;1.70;;
84163;SDS011;74288;46.872;7.802;2024-03-02T11:54:37;3.90;;;1.63;;
84163;SDS011;74288;46.872;7.802;2024-03-02T11:57:11;4.22;;;1.60;;
84163;SDS011;74288;46.872;7.802;2024-03-02T11:59:37;4.30;;;1.40;;
84163;SDS011;74288;46.872;7.802;2024-03-02T12:02:03;3.50;;;1.55;;
84163;SDS011;74288;46.872;7.802;2024-03-02T12:04:29;4.25;;;1.73;;
84163;SDS011;74288;46.872;7.802;2024-03-02T12:06:56;3.83;;;1.58;;
84163;SDS011;74288;46.872;7.802;2024-03-02T12:09:25;5.15;;;1.55;;
84163;SDS011;74288;46.872;7.802;2024-03-02T12:12:07;4.20;;;1.70;;
84163;SDS011;74288;46.872;7.802;2024-03-02T12:14:33;4.00;;;1.77;;
84163;SDS011;74288;46.872;7.802;2024-03-02T12:17:00;3.75;;;1.30;;
84163;SDS011;74288;46.872;7.802;2024-03-02T12:19:26;3.83;;;1.60;;
84163;SDS011;74288;46.872;7.802;2024-03-02T12:21:53;5.10;;;1.40;;
84163;SDS011;74288;46.872;7.802;2024-03-02T12:24:20;3.20;;;1.30;;
84163;SDS011;74288;46.872;7.802;2024-03-02T12:26:46;3.33;;;1.37;;
84163;SDS011;74288;46.872;7.802;2024-03-02T12:29:13;3.85;;;1.70;;
84163;SDS011;74288;46.872;7.802;2024-03-02T12:31:40;4.18;;;1.60;;
84163;SDS011;74288;46.872;7.802;2024-03-02T12:34:06;4.00;;;1.70;;
84163;SDS011;74288;46.872;7.802;2024-03-02T12:36:37;5.85;;;1.90;;
84163;SDS011;74288;46.872;7.802;2024-03-02T12:39:03;5.73;;;1.80;;
84163;SDS011;74288;46.872;7.802;2024-03-02T12:41:29;4.53;;;2.00;;
84163;SDS011;74288;46.872;7.802;2024-03-02T12:43:55;5.47;;;2.20;;
84163;SDS011;74288;46.872;7.802;2024-03-02T12:46:21;4.38;;;1.85;;
84163;SDS011;74288;46.872;7.802;2024-03-02T12:48:47;5.25;;;2.00;;
84163;SDS011;74288;46.872;7.802;2024-03-02T12:51:13;4.32;;;2.00;;
84163;SDS011;74288;46.872;7.802;2024-03-02T12:53:39;4.47;;;2.05;;
84163;SDS011;74288;46.872;7.802;2024-03-02T12:56:05;5.00;;;2.00;;
84163;SDS011;74288;46.872;7.802;2024-03-02T12:58:38;5.43;;;2.30;;
84163;SDS011;74288;46.872;7.802;2024-03-02T13:01:07;5.65;;;2.30;;
84163;SDS011;74288;46.872;7.802;2024-03-02T13:03:40;6.20;;;2.60;;
84163;SDS011;74288;46.872;7.802;2024-03-02T13:06:06;5.20;;;2.40;;
84163;SDS011;74288;46.872;7.802;2024-03-02T13:08:35;6.70;;;2.43;;
84163;SDS011;74288;46.872;7.802;2024-03-02T13:11:01;5.30;;;2.40;;
84163;SDS011;74288;46.872;7.802;2024-03-02T13:13:30;5.18;;;2.30;;
84163;SDS011;74288;46.872;7.802;2024-03-02T13:15:56;5.60;;;2.33;;
84163;SDS011;74288;46.872;7.802;2024-03-02T13:18:22;7.00;;;2.38;;
84163;SDS011;74288;46.872;7.802;2024-03-02T13:20:48;4.82;;;2.25;;
84163;SDS011;74288;46.872;7.802;2024-03-02T13:23:14;7.20;;;2.60;;
84163;SDS011;74288;46.872;7.802;2024-03-02T13:25:40;5.22;;;2.30;;
84163;SDS011;74288;46.872;7.802;2024-03-02T13:28:06;5.65;;;2.45;;
84163;SDS011;74288;46.872;7.802;2024-03-02T13:30:32;5.20;;;2.40;;
84163;SDS011;74288;46.872;7.802;2024-03-02T13:32:58;6.20;;;2.75;;
84163;SDS011;74288;46.872;7.802;2024-03-02T13:35:24;5.28;;;2.50;;
84163;SDS011;74288;46.872;7.802;2024-03-02T13:37:50;6.72;;;3.38;;
84163;SDS011;74288;46.872;7.802;2024-03-02T13:40:16;6.00;;;2.55;;
84163;SDS011;74288;46.872;7.802;2024-03-02T13:42:45;6.70;;;3.67;;
84163;SDS011;74288;46.872;7.802;2024-03-02T13:45:12;5.40;;;2.50;;
84163;SDS011;74288;46.872;7.802;2024-03-02T13:47:38;6.07;;;2.60;;
84163;SDS011;74288;46.872;7.802;2024-03-02T13:50:04;6.00;;;2.67;;
84163;SDS011;74288;46.872;7.802;2024-03-02T13:52:32;7.60;;;2.30;;
84163;SDS011;74288;46.872;7.802;2024-03-02T13:54:58;5.03;;;2.30;;
84163;SDS011;74288;46.872;7.802;2024-03-02T13:57:24;5.60;;;2.50;;
84163;SDS011;74288;46.872;7.802;2024-03-02T13:59:50;5.03;;;2.10;;
84163;SDS011;74288;46.872;7.802;2024-03-02T14:02:17;4.80;;;2.10;;
84163;SDS011;74288;46.872;7.802;2024-03-02T14:04:43;5.20;;;2.40;;
84163;SDS011;74288;46.872;7.802;2024-03-02T14:07:09;5.30;;;2.45;;
84163;SDS011;74288;46.872;7.802;2024-03-02T14:09:38;5.47;;;2.10;;
84163;SDS011;74288;46.872;7.802;2024-03-02T14:12:04;4.47;;;2.13;;
84163;SDS011;74288;46.872;7.802;2024-03-02T14:14:31;4.68;;;2.00;;
84163;SDS011;74288;46.872;7.802;2024-03-02T14:16:57;5.75;;;2.05;;
84163;SDS011;74288;46.872;7.802;2024-03-02T14:19:30;6.00;;;2.05;;
84163;SDS011;74288;46.872;7.802;2024-03-02T14:21:56;5.15;;;2.28;;
84163;SDS011;74288;46.872;7.802;2024-03-02T14:24:22;5.60;;;2.20;;
84163;SDS011;74288;46.872;7.802;2024-03-02T14:26:53;4.35;;;2.00;;
84163;SDS011;74288;46.872;7.802;2024-03-02T14:29:19;5.15;;;2.28;;
84163;SDS011;74288;46.872;7.802;2024-03-02T14:31:44;5.22;;;2.25;;
84163;SDS011;74288;46.872;7.802;2024-03-02T14:34:13;5.27;;;2.13;;
84163;SDS011;74288;46.872;7.802;2024-03-02T14:36:39;7.22;;;2.83;;
84163;SDS011;74288;46.872;7.802;2024-03-02T14:39:06;5.97;;;2.53;;
84163;SDS011;74288;46.872;7.802;2024-03-02T14:41:35;4.88;;;2.10;;
84163;SDS011;74288;46.872;7.802;2024-03-02T14:44:01;6.05;;;2.30;;
84163;SDS011;74288;46.872;7.802;2024-03-02T14:46:27;6.03;;;2.20;;
84163;SDS011;74288;46.872;7.802;2024-03-02T14:48:53;5.68;;;2.15;;